logo
Search for airport 
image banner adimage banner adimage banner ad
image banner ad

SNHG - Fazenda Varjadao

Located in Sandolandia, Brazil

ICAO - SNHG, IATA -

Data provided by Airmate  

General information

Coordinates: S12°20'29" W49°37'16"
Elevation is 793 feet MSL.
Magnetic variation is -21.22184504° East
View others Airports in Tocatins

Operational data

Special qualification required
Current time UTC:
Current local time:
Weather at : - ( 0 km )
METAR: PAIG 171413Z AUTO 22007KT 10SM -RA OVC009 08/07 A2991 RMK AO2 P0000
View NOTAMs / SUP AIP / TFR affecting this airport [VIEW]
Communications frequencies: [VIEW]

Runways:

RWY identifierQFULength (ft)Width (ft)SurfaceLDA (ft)
01328159ASPH
19328159ASPH

Airport contact information

Address: Sandolandia Brazil

Satellite view of SNHG